Time;durP1;ratioP1;P1;durP2;ratioP2;P2;SDS_P1;SDS_P2;PMS_P1;PMS_P2;Temp;Humidity;BMP_temperature;BMP_pressure;BME280_temperature;BME280_humidity;BME280_pressure;Samples;Min_cycle;Max_cycle;Signal;HPM_P1;HPM_P2
2022/06/09 00:01:43;;;;;;;4.50;3.70;;;23.50;41.30;;;;;;5031647;28;20194;-38
2022/06/09 00:04:17;;;;;;;3.70;3.17;;;23.50;41.50;;;;;;5031629;28;20179;-38
2022/06/09 00:06:49;;;;;;;4.60;3.83;;;23.40;41.30;;;;;;5031873;28;20461;-38
2022/06/09 00:09:16;;;;;;;4.93;3.30;;;23.40;41.40;;;;;;5031645;28;20448;-38
2022/06/09 00:11:48;;;;;;;6.43;2.90;;;23.40;41.70;;;;;;5031677;28;20843;-38
2022/06/09 00:14:14;;;;;;;3.20;2.27;;;23.30;41.70;;;;;;5031772;28;20761;-38
2022/06/09 00:16:41;;;;;;;3.63;2.50;;;23.40;41.90;;;;;;5031495;28;20456;-38
2022/06/09 00:19:07;;;;;;;6.10;3.30;;;23.30;41.70;;;;;;5031477;28;20404;-38
2022/06/09 00:21:35;;;;;;;3.73;3.20;;;23.30;41.90;;;;;;5031625;28;20452;-38
2022/06/09 00:24:02;;;;;;;3.97;2.43;;;23.30;41.90;;;;;;5031818;28;20409;-38
2022/06/09 00:26:29;;;;;;;3.37;2.30;;;23.30;42.00;;;;;;5031586;28;20459;-39
2022/06/09 00:28:55;;;;;;;6.83;3.37;;;23.20;41.70;;;;;;5031480;28;20411;-39
2022/06/09 00:31:20;;;;;;;5.83;3.17;;;23.30;41.80;;;;;;5031364;28;20883;-38
2022/06/09 00:33:46;;;;;;;5.10;2.23;;;23.20;41.90;;;;;;5031461;28;20928;-39
2022/06/09 00:36:12;;;;;;;3.30;2.40;;;23.20;42.10;;;;;;5033677;28;20236;-39
2022/06/09 00:38:38;;;;;;;5.20;3.10;;;23.10;42.20;;;;;;5034883;28;21000;-39
2022/06/09 00:41:04;;;;;;;3.80;2.43;;;23.10;42.80;;;;;;5034994;28;20511;-39
2022/06/09 00:43:31;;;;;;;2.77;1.87;;;23.00;42.10;;;;;;5034918;28;20450;-39
2022/06/09 00:46:25;;;;;;;2.90;1.93;;;23.00;42.20;;;;;;5034618;28;20413;-39
2022/06/09 00:48:57;;;;;;;3.50;2.10;;;22.90;42.00;;;;;;5031946;28;20442;-38
2022/06/09 00:51:47;;;;;;;5.67;3.03;;;22.90;41.80;;;;;;5034732;28;20420;-38
2022/06/09 00:54:32;;;;;;;2.47;1.90;;;22.80;41.30;;;;;;5034423;28;20926;-37
2022/06/09 00:57:24;;;;;;;3.67;1.70;;;22.70;40.80;;;;;;5034512;28;20460;-37
2022/06/09 00:59:55;;;;;;;2.23;1.60;;;22.50;40.60;;;;;;5011636;28;20420;-38
2022/06/09 01:02:21;;;;;;;3.60;1.63;;;22.50;40.60;;;;;;5034491;28;20428;-37
2022/06/09 01:04:50;;;;;;;2.57;1.70;;;22.50;40.60;;;;;;5034570;28;20397;-38
2022/06/09 01:07:21;;;;;;;3.33;2.10;;;22.40;40.50;;;;;;5034334;28;20411;-37
2022/06/09 01:09:47;;;;;;;2.30;1.93;;;22.40;40.60;;;;;;5034440;28;20465;-37
2022/06/09 01:12:30;;;;;;;2.10;1.50;;;22.40;40.60;;;;;;5034318;28;20889;-38
2022/06/09 01:15:01;;;;;;;3.57;1.70;;;22.30;40.50;;;;;;5034150;28;20173;-37
2022/06/09 01:17:42;;;;;;;2.90;1.40;;;22.30;40.50;;;;;;5034396;28;20515;-37
2022/06/09 01:20:13;;;;;;;2.03;1.57;;;22.20;40.50;;;;;;5034260;28;20404;-37
2022/06/09 01:23:01;;;;;;;3.30;1.17;;;22.20;40.50;;;;;;5034242;28;20463;-37
2022/06/09 01:25:36;;;;;;;2.10;1.67;;;22.20;40.60;;;;;;5034171;28;20405;-37
2022/06/09 01:28:26;;;;;;;2.27;1.80;;;22.10;40.60;;;;;;5033986;28;20905;-36
2022/06/09 01:31:18;;;;;;;2.67;1.40;;;22.10;41.00;;;;;;5033919;28;20758;-38
2022/06/09 01:33:57;;;;;;;3.53;1.60;;;22.10;41.00;;;;;;5034020;28;20389;-38
2022/06/09 01:36:36;;;;;;;2.30;1.67;;;22.10;40.90;;;;;;5033876;28;20436;-38
2022/06/09 01:39:05;;;;;;;2.20;1.40;;;22.00;40.90;;;;;;5034116;28;20389;-37
2022/06/09 01:41:32;;;;;;;2.43;1.30;;;21.90;40.90;;;;;;5033617;28;20582;-38
2022/06/09 01:43:58;;;;;;;2.17;1.43;;;21.90;41.20;;;;;;5033643;28;20492;-37
2022/06/09 01:46:26;;;;;;;2.13;1.17;;;21.90;41.30;;;;;;5033695;28;20415;-37
2022/06/09 01:48:56;;;;;;;2.50;1.43;;;21.90;41.10;;;;;;5033668;28;20900;-38
2022/06/09 01:51:24;;;;;;;2.90;1.60;;;21.80;41.00;;;;;;5033506;28;20437;-38
2022/06/09 01:53:55;;;;;;;2.10;1.20;;;21.80;41.10;;;;;;5033717;28;20458;-37
2022/06/09 01:56:29;;;;;;;3.83;1.33;;;21.70;41.10;;;;;;5033403;28;20994;-37
2022/06/09 01:59:00;;;;;;;2.60;1.10;;;21.70;41.30;;;;;;5033405;28;20411;-37
2022/06/09 02:01:33;;;;;;;2.20;1.30;;;21.70;41.30;;;;;;5033726;28;20780;-38
2022/06/09 02:04:03;;;;;;;2.60;1.50;;;21.60;41.40;;;;;;5033286;28;20935;-37
2022/06/09 02:06:32;;;;;;;2.43;1.30;;;21.60;41.50;;;;;;5033392;28;20405;-38
2022/06/09 02:08:58;;;;;;;2.60;1.63;;;21.60;41.40;;;;;;5033477;28;20831;-37
2022/06/09 02:11:24;;;;;;;2.17;1.13;;;21.60;41.60;;;;;;5033333;28;20437;-38
2022/06/09 02:13:55;;;;;;;2.10;1.17;;;21.60;41.60;;;;;;5033420;28;20412;-37
2022/06/09 02:16:23;;;;;;;2.80;1.30;;;21.60;42.00;;;;;;5015200;28;20506;-37
2022/06/09 02:18:54;;;;;;;2.67;1.70;;;21.60;41.80;;;;;;5033074;28;20610;-37
2022/06/09 02:21:27;;;;;;;1.93;0.97;;;21.60;41.90;;;;;;5032998;28;20432;-37
2022/06/09 02:23:54;;;;;;;2.43;1.27;;;21.60;41.70;;;;;;5032921;28;20404;-38
2022/06/09 02:26:21;;;;;;;1.80;1.00;;;21.60;42.10;;;;;;5033016;28;20868;-38
2022/06/09 02:28:50;;;;;;;2.63;1.30;;;21.60;41.90;;;;;;5032806;28;20432;-38
2022/06/09 02:31:18;;;;;;;1.70;1.20;;;21.60;42.10;;;;;;5032795;28;20420;-37
2022/06/09 02:33:44;;;;;;;3.60;1.40;;;21.60;42.10;;;;;;5032805;28;20495;-37
2022/06/09 02:36:09;;;;;;;1.77;0.87;;;21.60;42.30;;;;;;5032488;28;20451;-38
2022/06/09 02:38:35;;;;;;;2.67;1.60;;;21.60;42.30;;;;;;5032599;28;20409;-37
2022/06/09 02:41:02;;;;;;;3.50;1.73;;;21.70;42.60;;;;;;5032553;28;20232;-37
2022/06/09 02:43:27;;;;;;;1.90;1.37;;;21.70;42.50;;;;;;5032714;28;20393;-37
2022/06/09 02:45:53;;;;;;;1.80;1.10;;;21.70;42.70;;;;;;5032532;28;20500;-37
2022/06/09 02:48:20;;;;;;;2.47;1.20;;;21.70;42.80;;;;;;5032471;28;20189;-38
2022/06/09 02:50:47;;;;;;;2.00;1.40;;;21.70;42.50;;;;;;5032479;28;20185;-37
2022/06/09 02:53:14;;;;;;;3.40;1.77;;;21.80;42.40;;;;;;5032265;28;20850;-38
2022/06/09 02:55:40;;;;;;;2.37;1.63;;;21.80;42.20;;;;;;5032558;28;20820;-37
2022/06/09 02:58:07;;;;;;;2.27;1.10;;;21.80;42.20;;;;;;5031862;28;20409;-38
2022/06/09 03:00:32;;;;;;;2.37;1.40;;;21.80;42.00;;;;;;5032302;28;20409;-37
2022/06/09 03:03:01;;;;;;;2.40;1.10;;;21.80;42.10;;;;;;5032265;28;20436;-36
2022/06/09 03:05:28;;;;;;;3.53;1.20;;;21.80;42.00;;;;;;5032232;28;20206;-37
2022/06/09 03:07:54;;;;;;;3.73;1.30;;;21.80;42.10;;;;;;5032160;28;20932;-38
2022/06/09 03:10:21;;;;;;;2.00;1.10;;;21.80;41.70;;;;;;5032284;28;20901;-37
2022/06/09 03:12:47;;;;;;;1.70;1.17;;;21.80;41.90;;;;;;5032103;28;20436;-38
2022/06/09 03:15:16;;;;;;;2.83;1.40;;;21.90;42.00;;;;;;5032056;28;20456;-37
2022/06/09 03:17:41;;;;;;;2.20;1.10;;;21.90;41.90;;;;;;5032074;28;20420;-37
2022/06/09 03:20:11;;;;;;;2.07;1.40;;;21.90;42.00;;;;;;5032104;28;20789;-38
2022/06/09 03:22:37;;;;;;;2.00;1.20;;;21.90;41.80;;;;;;5031936;28;20197;-39
2022/06/09 03:25:03;;;;;;;3.10;1.00;;;21.90;41.90;;;;;;5032199;28;20781;-37
2022/06/09 03:27:29;;;;;;;2.60;1.30;;;21.90;41.80;;;;;;5032298;28;20186;-37
2022/06/09 03:29:55;;;;;;;1.70;0.90;;;21.90;41.80;;;;;;5032045;28;20418;-36
2022/06/09 03:32:22;;;;;;;1.70;1.10;;;21.90;41.90;;;;;;5031918;28;20199;-37
2022/06/09 03:34:48;;;;;;;1.80;0.80;;;22.00;41.80;;;;;;5031734;28;20224;-38
2022/06/09 03:37:14;;;;;;;2.00;1.00;;;22.00;41.90;;;;;;5031828;28;20797;-37
2022/06/09 03:39:40;;;;;;;3.13;0.90;;;22.00;41.70;;;;;;5031968;28;20400;-37
2022/06/09 03:42:06;;;;;;;2.13;0.87;;;22.00;41.50;;;;;;5031722;28;20444;-38
2022/06/09 03:44:32;;;;;;;2.37;1.00;;;22.00;41.60;;;;;;5031657;28;20188;-38
2022/06/09 03:46:58;;;;;;;1.80;1.10;;;22.00;41.50;;;;;;5014293;28;20896;-38
2022/06/09 03:49:24;;;;;;;1.93;1.00;;;22.00;41.70;;;;;;5031850;28;20409;-39
2022/06/09 03:51:49;;;;;;;1.50;1.00;;;22.00;41.60;;;;;;5032077;28;20213;-36
2022/06/09 03:54:15;;;;;;;2.20;0.80;;;22.00;41.60;;;;;;5031926;28;20527;-37
2022/06/09 03:56:42;;;;;;;2.40;0.90;;;21.90;41.60;;;;;;5031829;28;20233;-37
2022/06/09 03:59:12;;;;;;;2.33;1.30;;;21.90;41.60;;;;;;5031735;28;20413;-37
2022/06/09 04:01:38;;;;;;;2.00;1.17;;;21.90;41.80;;;;;;5032045;28;20468;-37
2022/06/09 04:04:04;;;;;;;3.93;1.20;;;21.90;41.80;;;;;;5031559;28;20432;-37
2022/06/09 04:06:30;;;;;;;1.67;1.27;;;21.90;41.90;;;;;;5031976;28;20512;-36
2022/06/09 04:08:56;;;;;;;2.30;1.20;;;21.90;41.90;;;;;;5013958;28;20409;-37
2022/06/09 04:11:23;;;;;;;2.63;1.00;;;21.90;41.90;;;;;;5034322;28;20436;-38
2022/06/09 04:13:49;;;;;;;2.30;1.20;;;21.90;42.10;;;;;;5035702;28;20511;-37
2022/06/09 04:16:31;;;;;;;2.30;0.97;;;22.00;42.20;;;;;;5035178;28;20452;-37
2022/06/09 04:19:00;;;;;;;3.17;1.20;;;21.90;41.90;;;;;;5035672;28;20400;-37
2022/06/09 04:21:27;;;;;;;1.90;0.90;;;21.90;42.00;;;;;;5035257;28;20439;-37
2022/06/09 04:23:54;;;;;;;3.30;1.27;;;21.90;42.20;;;;;;5035359;28;20411;-37
2022/06/09 04:26:23;;;;;;;3.20;1.33;;;22.00;42.10;;;;;;5035388;28;20459;-37
2022/06/09 04:28:49;;;;;;;4.90;1.20;;;22.00;42.10;;;;;;5035393;28;20468;-37
2022/06/09 04:31:15;;;;;;;3.70;1.40;;;22.00;42.10;;;;;;5017592;28;20805;-38
2022/06/09 04:33:41;;;;;;;1.77;1.30;;;22.00;42.20;;;;;;5035057;28;20904;-38
2022/06/09 04:36:09;;;;;;;2.70;1.53;;;22.00;42.20;;;;;;5034830;28;20276;-37
2022/06/09 04:38:36;;;;;;;2.37;1.33;;;22.00;42.30;;;;;;5035186;28;20812;-37
2022/06/09 04:41:09;;;;;;;1.80;1.10;;;22.10;42.30;;;;;;5034653;28;20486;-38
2022/06/09 04:43:36;;;;;;;1.87;1.10;;;22.10;42.70;;;;;;5034876;28;20421;-38
2022/06/09 04:46:03;;;;;;;2.07;0.97;;;22.10;42.30;;;;;;5034623;28;20897;-38
2022/06/09 04:48:28;;;;;;;2.60;1.17;;;22.20;42.30;;;;;;5034964;28;20444;-38
2022/06/09 04:50:54;;;;;;;1.90;1.00;;;22.10;42.20;;;;;;5034662;28;20417;-38
2022/06/09 04:53:20;;;;;;;4.30;1.03;;;22.20;42.20;;;;;;5034778;28;20550;-37
2022/06/09 04:55:45;;;;;;;2.20;1.03;;;22.20;42.10;;;;;;5034438;28;20566;-38
2022/06/09 04:58:11;;;;;;;2.03;1.03;;;22.10;42.30;;;;;;5034902;28;20182;-38
2022/06/09 05:00:37;;;;;;;1.70;1.07;;;22.20;42.20;;;;;;5034564;28;20174;-37
2022/06/09 05:03:03;;;;;;;1.40;0.80;;;22.10;42.30;;;;;;5034608;28;20579;-38
2022/06/09 05:05:33;;;;;;;2.27;1.50;;;22.10;42.40;;;;;;5034645;28;20416;-36
2022/06/09 05:08:00;;;;;;;3.63;1.00;;;22.00;42.70;;;;;;5034349;28;20519;-37
2022/06/09 05:10:27;;;;;;;1.50;0.80;;;22.00;42.50;;;;;;5034384;28;20417;-38
2022/06/09 05:12:54;;;;;;;2.30;1.30;;;22.00;42.50;;;;;;5034283;28;20437;-37
2022/06/09 05:15:21;;;;;;;1.93;0.93;;;22.00;42.80;;;;;;5034288;28;21185;-36
2022/06/09 05:17:50;;;;;;;2.07;1.23;;;22.00;42.80;;;;;;5034190;28;20960;-37
2022/06/09 05:20:18;;;;;;;3.30;1.23;;;22.10;43.10;;;;;;5034255;28;20436;-37
2022/06/09 05:22:44;;;;;;;2.57;1.10;;;22.10;43.00;;;;;;5033676;28;20440;-38
2022/06/09 05:25:11;;;;;;;3.53;1.33;;;22.10;42.90;;;;;;5033997;28;20416;-38
2022/06/09 05:27:37;;;;;;;3.40;1.13;;;22.20;42.90;;;;;;5034092;28;20174;-37
2022/06/09 05:30:11;;;;;;;2.57;1.30;;;22.10;42.90;;;;;;5034026;28;20869;-38
2022/06/09 05:32:37;;;;;;;1.87;1.17;;;22.20;43.00;;;;;;5033987;28;20433;-37
2022/06/09 05:35:04;;;;;;;2.63;1.40;;;22.20;42.80;;;;;;5034164;28;20497;-38
2022/06/09 05:44:50;;;;;;;1.83;1.13;;;22.20;43.00;;;;;;5033752;28;20409;-38
2022/06/09 05:45:45;;;;;;;1.70;1.10;;;22.40;43.00;;;;;;5034112;28;20415;-38
2022/06/09 05:48:11;;;;;;;2.30;1.53;;;22.40;43.10;;;;;;5033721;28;20764;-38
2022/06/09 05:50:37;;;;;;;2.53;1.40;;;22.40;43.00;;;;;;5033718;28;20405;-38
2022/06/09 05:53:03;;;;;;;2.77;0.90;;;22.40;43.20;;;;;;5033632;28;20668;-38
2022/06/09 05:55:29;;;;;;;2.63;1.57;;;22.40;43.00;;;;;;5033348;28;20472;-38
2022/06/09 05:57:54;;;;;;;7.30;1.33;;;22.50;42.90;;;;;;5033508;28;20182;-38
2022/06/09 06:00:20;;;;;;;1.97;1.27;;;22.50;43.00;;;;;;5033483;28;20204;-38
2022/06/09 06:02:46;;;;;;;8.30;1.90;;;22.50;43.20;;;;;;5033189;28;20248;-38
2022/06/09 06:06:33;;;;;;;2.00;1.07;;;22.50;43.00;;;;;;5033173;28;20409;-39
2022/06/09 06:07:57;;;;;;;4.13;0.90;;;22.50;43.00;;;;;;5033069;28;20562;-38
2022/06/09 06:10:23;;;;;;;1.80;1.13;;;22.60;42.90;;;;;;5033265;28;20409;-39
2022/06/09 06:12:49;;;;;;;4.00;1.40;;;22.60;42.80;;;;;;5033227;28;20661;-38
2022/06/09 06:15:15;;;;;;;5.43;1.73;;;22.60;42.80;;;;;;5033223;28;20201;-38
2022/06/09 06:17:40;;;;;;;2.00;1.10;;;22.60;42.60;;;;;;5033107;28;20170;-38
2022/06/09 06:20:07;;;;;;;1.93;1.23;;;22.60;42.80;;;;;;5033207;28;20174;-38
2022/06/09 06:22:33;;;;;;;2.00;1.13;;;22.60;43.10;;;;;;5033200;28;20200;-39
2022/06/09 06:24:59;;;;;;;1.60;1.00;;;22.70;43.20;;;;;;5032984;28;20935;-39
2022/06/09 06:27:26;;;;;;;1.70;1.00;;;22.70;43.10;;;;;;5032893;28;20435;-39
2022/06/09 06:29:52;;;;;;;2.63;1.10;;;22.70;42.80;;;;;;5032963;28;20408;-39
2022/06/09 06:32:18;;;;;;;2.67;1.73;;;22.70;42.90;;;;;;5032418;28;20478;-38
2022/06/09 06:34:43;;;;;;;1.80;1.10;;;22.70;42.90;;;;;;5032482;28;20250;-38
2022/06/09 06:37:09;;;;;;;2.27;1.30;;;22.70;42.90;;;;;;5032678;28;20539;-38
2022/06/09 06:39:35;;;;;;;1.70;0.93;;;22.70;42.80;;;;;;5033486;28;20174;-38
2022/06/09 06:42:01;;;;;;;3.03;1.50;;;22.70;43.00;;;;;;5032693;28;20213;-39
2022/06/09 06:44:26;;;;;;;4.93;1.93;;;22.60;42.80;;;;;;5032476;28;20277;-38
2022/06/09 06:46:52;;;;;;;2.10;1.17;;;22.60;42.70;;;;;;5032530;28;20178;-39
2022/06/09 06:49:18;;;;;;;1.60;1.20;;;22.50;42.50;;;;;;5032664;28;20170;-38
2022/06/09 06:51:43;;;;;;;2.53;1.37;;;22.40;42.40;;;;;;5032779;28;20665;-39
2022/06/09 06:54:11;;;;;;;2.50;1.33;;;22.40;42.80;;;;;;5032398;28;20181;-39
2022/06/09 06:56:37;;;;;;;1.67;1.00;;;22.30;42.80;;;;;;5032537;28;20547;-39
2022/06/09 06:59:03;;;;;;;1.97;1.17;;;22.30;43.00;;;;;;5032251;28;20917;-38
2022/06/09 07:01:30;;;;;;;1.90;1.00;;;22.30;43.10;;;;;;5032646;28;20424;-38
2022/06/09 07:03:57;;;;;;;2.37;1.00;;;22.30;43.10;;;;;;5032322;28;20407;-38
2022/06/09 07:06:23;;;;;;;1.80;1.30;;;22.30;43.80;;;;;;5032436;28;20417;-38
2022/06/09 07:08:49;;;;;;;2.20;1.30;;;22.30;43.50;;;;;;5032175;28;20436;-38
2022/06/09 07:11:15;;;;;;;2.43;1.10;;;22.30;43.40;;;;;;5032210;28;20979;-38
2022/06/09 07:13:42;;;;;;;2.27;1.33;;;22.30;43.30;;;;;;5032214;28;20228;-39
2022/06/09 07:16:09;;;;;;;2.53;1.20;;;22.30;43.40;;;;;;5031913;28;20471;-39
2022/06/09 07:18:37;;;;;;;1.80;1.20;;;22.40;43.40;;;;;;5032100;28;20808;-38
2022/06/09 07:21:04;;;;;;;2.47;1.57;;;22.40;43.50;;;;;;5032025;28;20407;-38
2022/06/09 07:23:30;;;;;;;10.30;1.57;;;22.40;43.60;;;;;;5032057;28;20405;-38
2022/06/09 07:25:57;;;;;;;3.80;1.30;;;22.40;43.60;;;;;;5031917;28;20827;-39
2022/06/09 07:28:24;;;;;;;4.57;1.33;;;22.40;43.60;;;;;;5032054;28;20932;-38
2022/06/09 07:30:55;;;;;;;2.00;1.23;;;22.50;43.80;;;;;;5032227;28;20417;-39
2022/06/09 07:33:21;;;;;;;2.67;1.30;;;22.60;43.70;;;;;;5032313;28;20385;-38
2022/06/09 07:35:51;;;;;;;2.40;0.90;;;22.60;43.40;;;;;;5034289;28;20808;-39
2022/06/09 07:38:17;;;;;;;2.63;1.80;;;22.50;43.40;;;;;;5034618;28;20473;-38
2022/06/09 07:40:44;;;;;;;2.47;1.00;;;22.60;43.30;;;;;;5031874;28;20408;-38
2022/06/09 07:43:11;;;;;;;2.80;1.20;;;22.50;43.20;;;;;;5031891;28;20440;-38
2022/06/09 07:45:38;;;;;;;2.07;0.97;;;22.50;43.20;;;;;;5035564;28;20415;-38
2022/06/09 07:48:04;;;;;;;1.97;1.13;;;22.50;43.30;;;;;;5035909;28;20897;-39
2022/06/09 07:50:32;;;;;;;3.10;1.40;;;22.50;43.10;;;;;;5035960;28;20444;-39
2022/06/09 07:52:58;;;;;;;2.40;1.10;;;22.50;43.20;;;;;;5035977;28;20428;-38
2022/06/09 07:55:24;;;;;;;2.73;1.50;;;22.40;43.10;;;;;;5035997;28;20567;-39
2022/06/09 07:57:51;;;;;;;2.27;1.37;;;22.50;43.60;;;;;;5035866;28;20404;-38
2022/06/09 08:00:19;;;;;;;2.30;1.50;;;22.40;43.30;;;;;;5035656;28;20439;-39
2022/06/09 08:02:45;;;;;;;5.00;1.73;;;22.40;43.70;;;;;;5035934;28;20428;-38
2022/06/09 08:05:14;;;;;;;5.93;1.37;;;22.40;43.60;;;;;;5035633;28;20431;-38
2022/06/09 08:07:41;;;;;;;3.13;1.57;;;22.50;43.50;;;;;;5035405;28;20431;-38
2022/06/09 08:10:08;;;;;;;2.53;1.70;;;22.50;43.70;;;;;;5035769;28;20900;-38
2022/06/09 08:12:34;;;;;;;1.97;1.40;;;22.50;43.60;;;;;;5035612;28;20510;-38
2022/06/09 08:15:00;;;;;;;2.57;1.60;;;22.50;43.60;;;;;;5035767;28;20973;-38
2022/06/09 08:17:26;;;;;;;1.87;1.50;;;22.50;43.70;;;;;;5035442;28;20401;-38
2022/06/09 08:19:52;;;;;;;5.13;1.80;;;22.40;43.70;;;;;;5035594;28;20476;-38
2022/06/09 08:22:18;;;;;;;4.20;1.40;;;22.40;43.70;;;;;;5035239;28;20185;-39
2022/06/09 08:24:46;;;;;;;2.60;1.73;;;22.40;43.60;;;;;;5035134;28;20401;-38
2022/06/09 08:27:12;;;;;;;2.50;1.83;;;22.40;43.60;;;;;;5035136;28;20745;-39
2022/06/09 08:29:38;;;;;;;2.13;1.20;;;22.40;43.90;;;;;;5035143;28;20411;-39
2022/06/09 08:32:04;;;;;;;4.10;1.33;;;22.30;43.70;;;;;;5035163;28;20213;-39
2022/06/09 08:34:31;;;;;;;2.20;1.40;;;22.30;43.70;;;;;;5035033;28;20912;-38
2022/06/09 08:36:56;;;;;;;2.00;1.30;;;22.30;43.80;;;;;;5034808;28;20448;-38
2022/06/09 08:39:23;;;;;;;1.80;1.00;;;22.40;43.60;;;;;;5035090;28;20915;-38
2022/06/09 08:42:00;;;;;;;2.83;1.33;;;22.40;43.90;;;;;;5034854;28;20546;-38
2022/06/09 08:44:50;;;;;;;2.60;1.80;;;22.50;44.10;;;;;;5034908;28;20400;-39
2022/06/09 08:47:34;;;;;;;2.33;1.57;;;22.40;43.30;;;;;;5035353;28;20412;-39
2022/06/09 08:50:21;;;;;;;8.30;5.23;;;22.40;43.50;;;;;;5036062;28;20470;-39
2022/06/09 08:53:09;;;;;;;12.10;8.17;;;22.30;43.60;;;;;;5017966;28;20535;-38
2022/06/09 08:55:40;;;;;;;10.40;6.60;;;22.30;44.00;;;;;;5035406;28;20964;-38
2022/06/09 08:58:18;;;;;;;4.47;2.67;;;22.30;44.00;;;;;;5034784;28;20409;-39
2022/06/09 09:00:50;;;;;;;12.10;8.30;;;22.30;44.30;;;;;;5034855;28;20407;-38
2022/06/09 09:03:22;;;;;;;12.30;6.80;;;22.20;44.40;;;;;;5034875;28;20447;-39
2022/06/09 09:06:17;;;;;;;8.80;5.60;;;22.20;44.20;;;;;;5034758;28;20389;-39
2022/06/09 09:08:43;;;;;;;4.07;3.10;;;22.20;44.50;;;;;;5032600;28;20988;-38
2022/06/09 09:11:17;;;;;;;12.33;6.10;;;22.10;44.80;;;;;;5034616;28;20413;-38
2022/06/09 09:14:00;;;;;;;23.50;12.30;;;22.10;44.70;;;;;;5034451;28;20170;-38
2022/06/09 09:16:38;;;;;;;10.77;7.70;;;22.10;45.10;;;;;;5034161;28;20539;-38
2022/06/09 09:19:22;;;;;;;3.87;3.37;;;22.10;45.50;;;;;;5034604;28;20968;-38
2022/06/09 09:22:03;;;;;;;3.00;2.70;;;22.10;45.70;;;;;;5034198;28;20905;-38
2022/06/09 09:24:38;;;;;;;2.73;2.10;;;22.00;45.80;;;;;;5034262;28;20904;-38
2022/06/09 09:27:10;;;;;;;4.33;3.57;;;21.90;45.70;;;;;;5033967;28;20436;-38
2022/06/09 09:29:55;;;;;;;3.30;2.47;;;21.90;46.00;;;;;;5034205;28;20385;-38
2022/06/09 09:32:34;;;;;;;3.40;3.10;;;21.90;45.90;;;;;;5034082;28;20468;-38
2022/06/09 09:35:00;;;;;;;2.87;2.57;;;21.90;46.20;;;;;;5033835;28;20408;-38
2022/06/09 09:37:38;;;;;;;4.90;3.13;;;21.90;46.40;;;;;;5034137;28;20427;-38
2022/06/09 09:40:23;;;;;;;4.90;3.40;;;22.00;46.30;;;;;;5033941;28;20381;-38
2022/06/09 09:42:51;;;;;;;3.83;2.93;;;22.00;46.20;;;;;;5033731;28;20467;-38
2022/06/09 09:45:39;;;;;;;3.00;2.40;;;22.00;46.00;;;;;;5033809;28;20411;-38
2022/06/09 09:48:25;;;;;;;2.87;2.57;;;22.00;46.10;;;;;;5033994;28;20433;-38
2022/06/09 09:51:00;;;;;;;3.00;2.10;;;22.00;46.00;;;;;;5033214;28;20460;-39
2022/06/09 09:53:53;;;;;;;2.77;2.47;;;22.00;45.90;;;;;;5033777;28;20408;-38
2022/06/09 09:56:30;;;;;;;4.43;2.50;;;22.00;45.90;;;;;;5033758;28;20518;-38
2022/06/09 09:58:59;;;;;;;4.30;2.93;;;22.00;46.10;;;;;;5033448;28;20412;-38
2022/06/09 10:01:27;;;;;;;3.87;3.10;;;21.90;46.40;;;;;;5033581;28;20417;-38
2022/06/09 10:09:54;;;;;;;3.83;2.90;;;21.90;46.40;;;;;;5033236;28;20403;-38
2022/06/09 10:12:23;;;;;;;6.40;3.10;;;21.90;46.80;;;;;;5033103;28;20524;-38
2022/06/09 10:14:56;;;;;;;2.50;2.30;;;21.80;47.00;;;;;;5033081;28;20917;-38
2022/06/09 10:17:26;;;;;;;4.10;3.13;;;21.80;46.90;;;;;;5033003;28;20225;-38
2022/06/09 10:20:25;;;;;;;5.70;3.33;;;21.80;47.20;;;;;;5033128;28;20809;-38
2022/06/09 10:23:17;;;;;;;3.40;2.70;;;21.90;47.90;;;;;;5029086;28;20468;-38
2022/06/09 10:26:06;;;;;;;3.20;2.40;;;21.90;47.80;;;;;;5026242;28;20423;-38
2022/06/09 10:29:25;;;;;;;3.57;3.20;;;21.90;47.70;;;;;;5033081;28;20432;-39
2022/06/09 10:31:54;;;;;;;3.43;2.87;;;21.80;47.70;;;;;;4999301;28;20432;-39
2022/06/09 10:34:34;;;;;;;4.57;3.23;;;21.80;48.20;;;;;;5032657;28;20415;-38
2022/06/09 10:37:09;;;;;;;3.60;2.50;;;21.70;48.10;;;;;;5032744;28;20432;-38
2022/06/09 10:40:07;;;;;;;4.00;3.20;;;21.70;48.60;;;;;;5032796;28;20753;-39
2022/06/09 10:42:39;;;;;;;4.30;3.03;;;21.70;48.50;;;;;;5001361;28;20510;-38
2022/06/09 10:45:27;;;;;;;3.90;3.30;;;21.70;48.30;;;;;;5032798;28;20818;-38
2022/06/09 10:57:07;;;;;;;3.83;2.43;;;21.60;49.30;;;;;;5032456;28;20486;-39
2022/06/09 10:59:44;;;;;;;4.13;3.60;;;21.60;49.20;;;;;;5032424;28;20436;-38
2022/06/09 11:02:22;;;;;;;4.37;3.17;;;21.60;49.40;;;;;;5032534;28;20443;-38
2022/06/09 11:04:50;;;;;;;3.33;2.67;;;21.70;49.30;;;;;;5032214;28;20400;-37
2022/06/09 11:07:47;;;;;;;3.90;3.50;;;21.80;49.40;;;;;;5032231;28;20420;-36
2022/06/09 11:10:25;;;;;;;3.73;3.37;;;21.80;49.30;;;;;;5032227;28;20400;-37
2022/06/09 11:13:16;;;;;;;3.90;3.20;;;21.80;49.30;;;;;;5032430;28;20429;-38
2022/06/09 11:15:48;;;;;;;4.00;2.93;;;21.90;49.40;;;;;;5032071;28;20456;-38
2022/06/09 11:18:54;;;;;;;4.70;3.23;;;21.90;49.40;;;;;;5032126;28;20392;-38
2022/06/09 11:21:39;;;;;;;4.20;3.80;;;22.00;49.40;;;;;;5032067;28;20412;-38
2022/06/09 11:24:46;;;;;;;3.90;2.90;;;22.00;49.60;;;;;;5032498;28;20792;-39
2022/06/09 11:27:18;;;;;;;3.80;3.13;;;22.10;49.40;;;;;;4970955;28;20451;-38
2022/06/09 11:29:47;;;;;;;6.40;3.73;;;22.10;49.30;;;;;;4971086;28;20436;-38
2022/06/09 11:33:00;;;;;;;4.43;4.03;;;22.20;49.30;;;;;;4970805;28;20538;-39
2022/06/09 11:35:39;;;;;;;3.50;3.10;;;22.20;49.20;;;;;;4945673;28;20544;-39
2022/06/09 11:39:02;;;;;;;4.30;3.67;;;22.20;49.10;;;;;;4970718;28;20931;-39
2022/06/09 11:42:19;;;;;;;3.40;2.80;;;22.30;49.30;;;;;;4913357;29;20804;-38
2022/06/09 11:44:48;;;;;;;7.03;3.10;;;22.30;49.10;;;;;;4905407;29;20426;-39
2022/06/09 11:47:21;;;;;;;4.13;3.13;;;22.30;49.00;;;;;;4913323;29;20418;-39
2022/06/09 11:49:58;;;;;;;4.30;3.73;;;22.40;49.20;;;;;;4913557;29;20895;-39
2022/06/09 11:52:34;;;;;;;5.20;3.17;;;22.40;49.00;;;;;;4913344;29;20430;-39
2022/06/09 11:55:57;;;;;;;4.10;3.37;;;22.40;49.10;;;;;;4913205;29;20950;-39
2022/06/09 11:58:35;;;;;;;4.47;2.80;;;22.50;48.90;;;;;;4936260;29;20585;-39
2022/06/09 12:01:09;;;;;;;4.53;3.43;;;22.50;48.60;;;;;;4951232;28;20416;-39
2022/06/09 12:03:54;;;;;;;7.40;3.10;;;22.50;48.30;;;;;;4951502;29;20404;-39
2022/06/09 12:06:40;;;;;;;4.43;3.67;;;22.60;48.30;;;;;;4951273;29;20959;-38
2022/06/09 12:09:24;;;;;;;3.63;3.00;;;22.60;48.10;;;;;;4931839;28;20412;-39
2022/06/09 12:11:49;;;;;;;6.73;4.33;;;22.70;48.30;;;;;;4988447;28;20439;-38
2022/06/09 12:14:17;;;;;;;6.73;3.97;;;22.70;48.20;;;;;;5031443;28;20401;-37
2022/06/09 12:17:11;;;;;;;3.10;2.50;;;22.80;48.20;;;;;;5031572;28;20190;-37
2022/06/09 12:19:51;;;;;;;3.73;3.00;;;22.90;48.00;;;;;;5031565;28;20742;-37
2022/06/09 12:22:38;;;;;;;3.93;2.73;;;22.90;47.70;;;;;;5031749;28;20442;-37
2022/06/09 12:25:26;;;;;;;5.30;3.30;;;23.00;47.40;;;;;;5031381;28;20447;-38
2022/06/09 12:27:52;;;;;;;3.77;3.37;;;23.10;47.50;;;;;;5031457;28;20483;-37
2022/06/09 12:30:50;;;;;;;4.53;3.00;;;23.10;47.30;;;;;;5031712;28;20412;-38
2022/06/09 12:33:16;;;;;;;3.70;2.93;;;23.20;46.90;;;;;;5032068;28;20443;-38
2022/06/09 12:35:55;;;;;;;4.40;3.63;;;23.20;47.00;;;;;;5034809;28;20448;-37
2022/06/09 12:38:41;;;;;;;4.50;3.13;;;23.30;47.30;;;;;;5034866;28;20412;-38
2022/06/09 12:41:15;;;;;;;5.70;3.40;;;23.40;46.90;;;;;;5034837;28;20428;-37
2022/06/09 12:43:43;;;;;;;4.30;3.10;;;23.50;47.60;;;;;;5034951;28;20466;-38
2022/06/09 12:46:17;;;;;;;5.30;3.80;;;23.50;45.90;;;;;;5034986;28;20440;-38
2022/06/09 12:48:44;;;;;;;5.40;3.90;;;23.50;45.80;;;;;;5034751;28;20928;-38
2022/06/09 12:51:31;;;;;;;5.93;3.47;;;23.50;46.10;;;;;;5034574;28;20400;-38
2022/06/09 12:54:19;;;;;;;3.50;3.20;;;23.50;46.20;;;;;;5034832;28;20516;-37
2022/06/09 12:57:07;;;;;;;6.53;3.13;;;23.60;46.20;;;;;;5034883;28;20820;-38
2022/06/09 12:59:40;;;;;;;5.27;3.70;;;23.60;45.80;;;;;;5034493;28;20400;-38
2022/06/09 13:02:27;;;;;;;4.00;2.73;;;23.70;45.60;;;;;;5034748;28;20437;-37
2022/06/09 13:05:13;;;;;;;5.20;4.40;;;23.70;45.40;;;;;;5034884;28;20389;-38
2022/06/09 13:08:01;;;;;;;5.73;3.03;;;23.70;45.20;;;;;;5034551;28;20547;-37
2022/06/09 13:10:33;;;;;;;4.70;3.40;;;23.70;45.20;;;;;;5034828;28;20388;-37
2022/06/09 13:13:29;;;;;;;3.73;3.13;;;23.80;45.60;;;;;;5034344;28;20455;-38
2022/06/09 13:16:03;;;;;;;3.93;2.80;;;23.80;45.70;;;;;;5032932;28;20460;-38
2022/06/09 13:18:34;;;;;;;4.67;3.40;;;23.90;45.40;;;;;;5034197;28;20408;-37
2022/06/09 13:21:20;;;;;;;5.33;3.00;;;24.00;45.20;;;;;;5034115;28;20404;-38
2022/06/09 13:23:50;;;;;;;4.83;3.40;;;24.00;45.30;;;;;;5034357;28;20484;-38
2022/06/09 13:26:30;;;;;;;3.90;2.57;;;24.10;45.10;;;;;;5034240;28;20401;-38
2022/06/09 13:28:58;;;;;;;6.40;3.63;;;24.10;44.60;;;;;;5034080;28;20416;-38
2022/06/09 13:31:30;;;;;;;6.20;3.00;;;24.10;44.70;;;;;;5033969;28;20516;-38
2022/06/09 13:34:14;;;;;;;5.83;3.80;;;24.10;44.70;;;;;;5033917;28;20447;-39